Time;durP1;ratioP1;P1;durP2;ratioP2;P2;SDS_P1;SDS_P2;PMS_P1;PMS_P2;Temp;Humidity;BMP_temperature;BMP_pressure;BME280_temperature;BME280_humidity;BME280_pressure;Samples;Min_cycle;Max_cycle;Signal;HPM_P1;HPM_P2
2023/03/29 00:01:46;;;;;;;5.25;2.92;;;;;;;;;;4812369;29;20046;-79
2023/03/29 00:04:32;;;;;;;8.10;4.15;;;;;;;;;;4812744;29;20435;-78
2023/03/29 00:07:18;;;;;;;1.83;1.67;;;;;;;;;;4821451;29;20054;-79
2023/03/29 00:10:04;;;;;;;6.53;3.75;;;;;;;;;;4804515;29;20050;-79
2023/03/29 00:12:51;;;;;;;5.07;2.97;;;;;;;;;;4812160;29;20054;-78
2023/03/29 00:15:35;;;;;;;4.57;2.30;;;;;;;;;;4828313;29;20050;-79
2023/03/29 00:18:21;;;;;;;4.03;2.03;;;;;;;;;;4821381;29;20512;-79
2023/03/29 00:21:06;;;;;;;3.15;1.63;;;;;;;;;;4821044;29;20407;-79
2023/03/29 00:23:52;;;;;;;4.00;2.58;;;;;;;;;;4812365;29;20658;-79
2023/03/29 00:26:37;;;;;;;5.47;2.85;;;;;;;;;;4811915;29;20405;-79
2023/03/29 00:29:26;;;;;;;6.43;2.78;;;;;;;;;;4804182;29;20050;-79
2023/03/29 00:32:12;;;;;;;5.70;2.90;;;;;;;;;;4812303;29;20058;-79
2023/03/29 00:35:04;;;;;;;4.30;2.80;;;;;;;;;;4804039;29;20497;-79
2023/03/29 00:37:49;;;;;;;3.90;2.60;;;;;;;;;;4812272;29;20050;-79
2023/03/29 00:40:40;;;;;;;6.10;2.83;;;;;;;;;;4797827;29;20062;-80
2023/03/29 00:43:26;;;;;;;5.25;2.80;;;;;;;;;;4828444;29;20412;-79
2023/03/29 00:46:12;;;;;;;3.08;2.28;;;;;;;;;;4802780;29;20066;-79
2023/03/29 00:49:04;;;;;;;10.25;3.08;;;;;;;;;;4804516;29;20050;-79
2023/03/29 00:51:49;;;;;;;5.93;2.80;;;;;;;;;;4829005;29;20046;-79
2023/03/29 00:54:36;;;;;;;6.20;3.53;;;;;;;;;;4815755;29;20050;-79
2023/03/29 00:57:23;;;;;;;11.23;5.38;;;;;;;;;;4803100;29;20050;-79
2023/03/29 01:00:09;;;;;;;7.05;3.72;;;;;;;;;;4803510;29;20059;-79
2023/03/29 01:02:58;;;;;;;11.07;4.90;;;;;;;;;;4828837;29;20050;-79
2023/03/29 01:05:46;;;;;;;9.27;4.00;;;;;;;;;;4815537;29;20054;-79
2023/03/29 01:08:39;;;;;;;15.93;5.45;;;;;;;;;;4820901;29;20057;-78
2023/03/29 01:11:29;;;;;;;11.18;4.82;;;;;;;;;;4811965;29;20050;-79
2023/03/29 01:14:34;;;;;;;7.80;3.90;;;;;;;;;;4831420;29;20050;-79
2023/03/29 01:17:24;;;;;;;19.92;6.38;;;;;;;;;;4807839;29;20404;-79
2023/03/29 01:20:19;;;;;;;25.33;9.05;;;;;;;;;;4824005;29;20047;-79
2023/03/29 01:23:26;;;;;;;10.38;4.40;;;;;;;;;;4807104;29;20051;-79
2023/03/29 01:26:27;;;;;;;21.10;7.15;;;;;;;;;;4830640;29;20046;-80
2023/03/29 01:29:18;;;;;;;7.90;3.63;;;;;;;;;;4832073;29;20058;-79
2023/03/29 01:32:07;;;;;;;19.73;6.80;;;;;;;;;;4807127;29;20059;-79
2023/03/29 01:35:02;;;;;;;17.42;5.32;;;;;;;;;;4814708;29;20047;-79
2023/03/29 01:37:56;;;;;;;34.90;8.13;;;;;;;;;;4832765;29;20050;-79
2023/03/29 01:40:41;;;;;;;6.85;3.42;;;;;;;;;;4814661;29;20476;-80
2023/03/29 01:43:59;;;;;;;11.15;4.20;;;;;;;;;;4800919;29;20063;-79
2023/03/29 01:46:46;;;;;;;9.90;4.38;;;;;;;;;;4808529;29;20428;-79
2023/03/29 01:49:48;;;;;;;25.13;8.48;;;;;;;;;;4807180;29;20047;-79
2023/03/29 01:52:57;;;;;;;5.43;2.97;;;;;;;;;;4806401;29;20059;-79
2023/03/29 01:55:48;;;;;;;6.28;3.05;;;;;;;;;;4807376;29;20038;-79
2023/03/29 01:58:37;;;;;;;35.35;13.20;;;;;;;;;;4824832;29;20049;-79
2023/03/29 02:01:28;;;;;;;25.67;10.23;;;;;;;;;;4824047;29;20408;-79
2023/03/29 02:04:21;;;;;;;89.70;32.88;;;;;;;;;;4811917;29;20054;-79
2023/03/29 02:07:08;;;;;;;9.65;4.32;;;;;;;;;;4800165;29;20051;-79
2023/03/29 02:09:54;;;;;;;10.88;5.60;;;;;;;;;;4814408;29;20047;-79
2023/03/29 02:12:39;;;;;;;20.00;10.13;;;;;;;;;;4803015;29;20412;-79
2023/03/29 02:15:25;;;;;;;5.78;2.90;;;;;;;;;;4803363;29;20047;-79
2023/03/29 02:18:12;;;;;;;5.45;2.83;;;;;;;;;;4796912;29;20047;-78
2023/03/29 02:20:57;;;;;;;4.32;2.92;;;;;;;;;;4815038;29;20051;-78
2023/03/29 02:23:46;;;;;;;4.65;2.55;;;;;;;;;;4826855;29;20475;-79
2023/03/29 02:26:31;;;;;;;4.22;1.63;;;;;;;;;;4806703;29;20078;-79
2023/03/29 02:29:17;;;;;;;4.45;2.70;;;;;;;;;;4803365;29;20055;-79
2023/03/29 02:32:28;;;;;;;6.22;2.75;;;;;;;;;;4826962;29;20050;-80
2023/03/29 02:35:20;;;;;;;4.55;2.67;;;;;;;;;;4806610;29;20054;-79
2023/03/29 02:38:10;;;;;;;9.13;2.97;;;;;;;;;;4802813;29;20058;-79
2023/03/29 02:40:57;;;;;;;5.22;2.47;;;;;;;;;;4829566;29;20484;-80
2023/03/29 02:43:45;;;;;;;6.00;3.00;;;;;;;;;;4802646;29;20054;-79
2023/03/29 02:46:30;;;;;;;2.80;2.17;;;;;;;;;;4829991;29;20058;-79
2023/03/29 02:49:15;;;;;;;1.67;1.58;;;;;;;;;;4796325;29;20054;-79
2023/03/29 02:52:07;;;;;;;8.23;2.75;;;;;;;;;;4796428;29;20058;-79
2023/03/29 02:54:54;;;;;;;5.07;2.78;;;;;;;;;;4818498;29;20050;-79
2023/03/29 02:57:42;;;;;;;6.15;2.58;;;;;;;;;;4802697;29;20051;-79
2023/03/29 03:00:28;;;;;;;1.67;1.48;;;;;;;;;;4819733;29;20054;-79
2023/03/29 03:03:14;;;;;;;3.20;2.35;;;;;;;;;;4826229;29;20054;-79
2023/03/29 03:06:01;;;;;;;3.25;2.20;;;;;;;;;;4802517;29;20058;-79
2023/03/29 03:08:48;;;;;;;2.80;1.98;;;;;;;;;;4802167;29;20062;-79
2023/03/29 03:11:33;;;;;;;3.30;2.10;;;;;;;;;;4820334;29;20488;-79
2023/03/29 03:14:21;;;;;;;3.78;2.40;;;;;;;;;;4803911;29;20069;-79
2023/03/29 03:17:07;;;;;;;5.95;2.40;;;;;;;;;;4803724;29;20054;-79
2023/03/29 03:19:52;;;;;;;7.05;2.47;;;;;;;;;;4821979;29;20411;-79
2023/03/29 03:22:44;;;;;;;2.83;2.25;;;;;;;;;;4828831;29;20468;-79
2023/03/29 03:25:29;;;;;;;5.63;2.33;;;;;;;;;;4821198;29;20054;-79
2023/03/29 03:28:14;;;;;;;8.05;3.03;;;;;;;;;;4821035;29;20117;-79
2023/03/29 03:30:59;;;;;;;6.28;2.72;;;;;;;;;;4797373;29;20062;-79
2023/03/29 03:34:11;;;;;;;3.05;2.00;;;;;;;;;;4828412;29;20054;-79
2023/03/29 03:37:10;;;;;;;5.68;2.33;;;;;;;;;;4810078;29;20049;-79
2023/03/29 03:39:56;;;;;;;1.83;1.40;;;;;;;;;;4811715;29;20046;-80
2023/03/29 03:42:42;;;;;;;4.25;2.63;;;;;;;;;;4820631;29;20488;-80
2023/03/29 03:45:27;;;;;;;3.20;1.85;;;;;;;;;;4802051;29;20054;-80
2023/03/29 03:48:26;;;;;;;5.70;2.10;;;;;;;;;;4797426;29;20050;-79
2023/03/29 03:51:30;;;;;;;6.70;2.77;;;;;;;;;;4800234;29;20054;-79
2023/03/29 03:54:16;;;;;;;8.35;3.70;;;;;;;;;;4803112;29;20058;-78
2023/03/29 03:57:31;;;;;;;5.32;2.65;;;;;;;;;;4795311;29;20051;-78
2023/03/29 04:00:20;;;;;;;4.85;2.63;;;;;;;;;;4803294;29;20059;-78
2023/03/29 04:03:15;;;;;;;4.32;2.70;;;;;;;;;;4802912;29;20054;-79
2023/03/29 04:06:02;;;;;;;4.78;3.00;;;;;;;;;;4802962;29;20046;-80
2023/03/29 04:08:59;;;;;;;5.00;3.05;;;;;;;;;;4822019;29;20042;-80
2023/03/29 04:11:52;;;;;;;5.38;2.85;;;;;;;;;;4803430;29;20058;-79
2023/03/29 04:14:37;;;;;;;5.05;2.42;;;;;;;;;;4811108;29;20054;-79
2023/03/29 04:17:31;;;;;;;3.57;2.23;;;;;;;;;;4803492;29;20500;-79
2023/03/29 04:20:27;;;;;;;11.25;2.55;;;;;;;;;;4802074;29;20287;-79
2023/03/29 04:23:13;;;;;;;8.48;3.03;;;;;;;;;;4803283;29;20046;-79
2023/03/29 04:26:02;;;;;;;13.43;3.60;;;;;;;;;;4821005;29;20054;-79
2023/03/29 04:29:20;;;;;;;2.92;2.17;;;;;;;;;;4803792;29;20051;-79
2023/03/29 04:32:12;;;;;;;4.57;2.60;;;;;;;;;;4802840;29;20058;-79
2023/03/29 04:35:05;;;;;;;7.57;3.80;;;;;;;;;;4802766;29;20487;-79
2023/03/29 04:37:53;;;;;;;7.90;4.05;;;;;;;;;;4803028;29;20050;-79
2023/03/29 04:40:40;;;;;;;4.85;3.00;;;;;;;;;;4821213;29;20392;-79
2023/03/29 04:43:55;;;;;;;7.77;3.90;;;;;;;;;;4787221;29;20412;-79
2023/03/29 04:46:43;;;;;;;4.68;2.33;;;;;;;;;;4805014;29;20053;-79
2023/03/29 04:49:29;;;;;;;7.35;3.35;;;;;;;;;;4809799;29;20742;-79
2023/03/29 04:52:14;;;;;;;5.30;2.50;;;;;;;;;;4803126;29;20504;-78
2023/03/29 04:55:01;;;;;;;4.75;3.13;;;;;;;;;;4807429;29;20050;-79
2023/03/29 04:58:10;;;;;;;4.13;2.60;;;;;;;;;;4815018;29;20043;-78
2023/03/29 05:00:58;;;;;;;2.45;2.20;;;;;;;;;;4833655;29;20408;-79
2023/03/29 05:03:48;;;;;;;5.00;3.05;;;;;;;;;;4807571;29;20512;-78
2023/03/29 05:06:41;;;;;;;6.18;2.60;;;;;;;;;;4803558;29;20070;-79
2023/03/29 05:09:27;;;;;;;1.70;1.48;;;;;;;;;;4819434;29;20046;-78
2023/03/29 05:12:12;;;;;;;7.63;2.78;;;;;;;;;;4820769;29;20061;-78
2023/03/29 05:15:09;;;;;;;2.40;2.17;;;;;;;;;;4815095;29;20501;-79
2023/03/29 05:17:57;;;;;;;5.70;3.75;;;;;;;;;;4802201;29;20055;-80
2023/03/29 05:20:44;;;;;;;7.95;4.35;;;;;;;;;;4808135;29;20050;-80
2023/03/29 05:23:34;;;;;;;6.68;3.78;;;;;;;;;;4806916;29;20478;-79
2023/03/29 05:26:26;;;;;;;12.70;5.90;;;;;;;;;;4803553;29;20051;-79
2023/03/29 05:29:13;;;;;;;5.30;2.80;;;;;;;;;;4802031;29;20503;-79
2023/03/29 05:32:00;;;;;;;5.18;3.00;;;;;;;;;;4807501;29;20053;-79
2023/03/29 05:34:46;;;;;;;5.60;3.05;;;;;;;;;;4804381;29;20055;-79
2023/03/29 05:37:34;;;;;;;6.35;3.33;;;;;;;;;;4819699;29;20050;-79
2023/03/29 05:40:20;;;;;;;6.22;3.08;;;;;;;;;;4802193;29;20043;-78
2023/03/29 05:43:40;;;;;;;8.45;4.22;;;;;;;;;;4736496;30;20056;-78
2023/03/29 05:46:26;;;;;;;5.70;2.90;;;;;;;;;;4812339;29;20046;-78
2023/03/29 05:49:15;;;;;;;9.23;4.35;;;;;;;;;;4819588;29;20051;-79
2023/03/29 05:52:18;;;;;;;5.22;1.88;;;;;;;;;;4820610;29;20050;-78
2023/03/29 05:55:04;;;;;;;6.95;3.72;;;;;;;;;;4799216;29;20046;-78
2023/03/29 05:57:50;;;;;;;6.07;3.50;;;;;;;;;;4816727;29;20041;-79
2023/03/29 06:00:40;;;;;;;11.95;3.90;;;;;;;;;;4812414;29;20050;-78
2023/03/29 06:03:42;;;;;;;4.22;2.83;;;;;;;;;;4802990;29;20054;-79
2023/03/29 06:06:27;;;;;;;4.22;2.88;;;;;;;;;;4819926;29;20054;-78
2023/03/29 06:09:13;;;;;;;5.80;3.50;;;;;;;;;;4827371;29;20412;-79
2023/03/29 06:12:07;;;;;;;6.93;4.20;;;;;;;;;;4802637;29;20054;-80
2023/03/29 06:15:03;;;;;;;11.18;3.72;;;;;;;;;;4815628;29;20057;-78
2023/03/29 06:18:10;;;;;;;9.65;4.93;;;;;;;;;;4817150;29;20080;-78
2023/03/29 06:20:56;;;;;;;2.67;1.83;;;;;;;;;;4807485;29;20054;-80
2023/03/29 06:23:41;;;;;;;3.08;1.98;;;;;;;;;;4802862;29;20054;-78
2023/03/29 06:26:27;;;;;;;6.38;2.70;;;;;;;;;;4802784;29;20050;-78
2023/03/29 06:29:13;;;;;;;2.92;1.52;;;;;;;;;;4803935;29;20058;-77
2023/03/29 06:31:59;;;;;;;9.60;5.13;;;;;;;;;;4805305;29;20420;-77
2023/03/29 06:35:04;;;;;;;10.33;4.80;;;;;;;;;;4801869;29;20496;-78
2023/03/29 06:38:03;;;;;;;3.95;2.92;;;;;;;;;;4791695;29;20046;-78
2023/03/29 06:41:01;;;;;;;6.25;2.53;;;;;;;;;;4802500;29;20062;-78
2023/03/29 06:43:50;;;;;;;7.93;3.00;;;;;;;;;;4807926;29;20057;-79
2023/03/29 06:46:36;;;;;;;7.20;4.28;;;;;;;;;;4802894;29;20054;-77
2023/03/29 06:49:26;;;;;;;4.43;2.10;;;;;;;;;;4801118;29;20050;-78
2023/03/29 06:52:22;;;;;;;2.00;1.67;;;;;;;;;;4802290;29;20062;-76
2023/03/29 06:55:10;;;;;;;2.75;1.77;;;;;;;;;;4803868;29;20058;-78
2023/03/29 06:57:56;;;;;;;5.65;3.05;;;;;;;;;;4823494;29;20054;-77
2023/03/29 07:00:42;;;;;;;17.08;2.67;;;;;;;;;;4798337;29;20114;-78
2023/03/29 07:03:35;;;;;;;6.88;2.55;;;;;;;;;;4804013;29;20046;-77
2023/03/29 07:06:21;;;;;;;6.57;2.67;;;;;;;;;;4804238;29;20054;-77
2023/03/29 07:09:06;;;;;;;6.00;3.35;;;;;;;;;;4803471;29;20042;-77
2023/03/29 07:12:12;;;;;;;45.80;19.70;;;;;;;;;;4828827;29;20057;-79
2023/03/29 07:14:57;;;;;;;3.83;2.20;;;;;;;;;;4811657;29;20047;-78
2023/03/29 07:17:50;;;;;;;3.28;2.33;;;;;;;;;;4804418;29;20047;-78
2023/03/29 07:20:37;;;;;;;3.45;1.85;;;;;;;;;;4812016;29;20058;-79
2023/03/29 07:23:24;;;;;;;3.47;2.30;;;;;;;;;;4826888;29;20065;-77
2023/03/29 07:26:09;;;;;;;6.55;3.17;;;;;;;;;;4804334;29;20050;-79
2023/03/29 07:28:55;;;;;;;11.30;4.30;;;;;;;;;;4808276;29;20046;-79
2023/03/29 07:31:42;;;;;;;7.63;3.40;;;;;;;;;;4803757;29;20504;-78
2023/03/29 07:34:48;;;;;;;4.22;2.28;;;;;;;;;;4800168;29;20042;-79
2023/03/29 07:37:48;;;;;;;3.88;2.33;;;;;;;;;;4807805;29;20370;-79
2023/03/29 07:40:34;;;;;;;8.90;4.72;;;;;;;;;;4803590;29;20050;-79
2023/03/29 07:43:38;;;;;;;5.53;2.58;;;;;;;;;;4799509;29;20408;-78
2023/03/29 07:46:23;;;;;;;8.20;3.78;;;;;;;;;;4801675;29;20062;-79
2023/03/29 07:49:09;;;;;;;4.88;2.47;;;;;;;;;;4810840;29;20067;-79
2023/03/29 07:51:54;;;;;;;3.83;2.20;;;;;;;;;;4804100;29;20058;-78
2023/03/29 07:54:41;;;;;;;9.73;2.55;;;;;;;;;;4803252;29;20055;-79
2023/03/29 07:57:55;;;;;;;4.37;2.87;;;;;;;;;;4822287;29;20057;-78
2023/03/29 08:00:42;;;;;;;5.85;3.15;;;;;;;;;;4802774;29;20122;-80
2023/03/29 08:03:47;;;;;;;8.63;3.00;;;;;;;;;;4833770;29;20491;-78
2023/03/29 08:06:32;;;;;;;4.03;2.75;;;;;;;;;;4803022;29;20050;-78
2023/03/29 08:09:18;;;;;;;4.57;2.60;;;;;;;;;;4796542;29;20054;-79
2023/03/29 08:12:03;;;;;;;7.45;3.60;;;;;;;;;;4803388;29;20050;-78
2023/03/29 08:14:53;;;;;;;2.65;1.85;;;;;;;;;;4802373;29;20042;-79
2023/03/29 08:17:56;;;;;;;3.55;1.95;;;;;;;;;;4802815;29;20050;-79
2023/03/29 08:20:44;;;;;;;3.25;1.55;;;;;;;;;;4803713;29;20062;-79
2023/03/29 08:23:30;;;;;;;7.80;3.13;;;;;;;;;;4827933;29;20038;-78
2023/03/29 08:26:24;;;;;;;2.97;1.88;;;;;;;;;;4802949;29;20046;-78
2023/03/29 08:29:10;;;;;;;7.57;3.10;;;;;;;;;;4828614;29;20042;-79
2023/03/29 08:31:57;;;;;;;4.82;2.85;;;;;;;;;;4802931;29;20485;-79
2023/03/29 08:34:43;;;;;;;4.03;2.28;;;;;;;;;;4803399;29;20054;-78
2023/03/29 08:37:39;;;;;;;4.57;2.00;;;;;;;;;;4809721;29;20050;-78
2023/03/29 10:24:00;;;;;;;7.40;3.13;;;;;;;;;;3180849;30;22447;-79
2023/03/29 10:26:48;;;;;;;2.30;1.73;;;;;;;;;;4790460;30;20051;-80
2023/03/29 10:29:39;;;;;;;1.50;1.25;;;;;;;;;;4790941;30;20051;-77
2023/03/29 10:32:31;;;;;;;4.22;2.33;;;;;;;;;;4777102;30;20051;-78
2023/03/29 10:35:28;;;;;;;4.00;1.63;;;;;;;;;;4790382;30;20052;-77
2023/03/29 10:38:17;;;;;;;3.70;2.53;;;;;;;;;;4790723;30;20051;-77
2023/03/29 10:41:10;;;;;;;5.75;2.63;;;;;;;;;;4790376;30;20063;-78
2023/03/29 10:43:56;;;;;;;4.38;2.03;;;;;;;;;;4789225;29;20043;-77
2023/03/29 10:46:42;;;;;;;2.33;1.73;;;;;;;;;;4790617;30;20474;-78
2023/03/29 10:49:28;;;;;;;5.65;2.10;;;;;;;;;;4790576;30;20485;-78
2023/03/29 10:52:15;;;;;;;5.55;2.03;;;;;;;;;;4790324;30;20059;-77
2023/03/29 10:55:00;;;;;;;2.03;1.40;;;;;;;;;;4789891;30;20047;-76
2023/03/29 10:58:14;;;;;;;1.83;1.40;;;;;;;;;;4776888;30;20043;-77
2023/03/29 11:01:16;;;;;;;2.50;1.37;;;;;;;;;;4777575;30;20051;-77
2023/03/29 11:04:27;;;;;;;8.55;2.00;;;;;;;;;;4789156;30;20059;-77
2023/03/29 11:07:28;;;;;;;4.32;2.03;;;;;;;;;;4790791;30;20047;-77
2023/03/29 11:10:39;;;;;;;3.60;2.13;;;;;;;;;;4789944;30;20051;-77
2023/03/29 11:13:24;;;;;;;2.72;1.63;;;;;;;;;;4782782;29;20513;-77
2023/03/29 11:16:16;;;;;;;1.80;1.55;;;;;;;;;;4788776;30;20487;-76
2023/03/29 11:19:10;;;;;;;13.13;5.43;;;;;;;;;;4789918;30;20078;-77
2023/03/29 11:22:13;;;;;;;7.60;3.50;;;;;;;;;;4789792;30;20047;-76
2023/03/29 11:25:25;;;;;;;4.97;2.67;;;;;;;;;;4789650;30;20477;-76
2023/03/29 11:28:43;;;;;;;6.00;1.70;;;;;;;;;;4776061;30;20055;-78
2023/03/29 11:31:31;;;;;;;19.15;8.05;;;;;;;;;;4795538;29;20417;-79
2023/03/29 11:34:21;;;;;;;5.43;2.40;;;;;;;;;;4789554;30;20055;-77
2023/03/29 11:37:18;;;;;;;4.93;2.10;;;;;;;;;;4789177;30;20047;-79
2023/03/29 11:40:41;;;;;;;1.27;1.17;;;;;;;;;;4769578;29;20059;-79
2023/03/29 11:43:26;;;;;;;14.93;6.68;;;;;;;;;;4794998;29;20497;-79
2023/03/29 11:46:23;;;;;;;2.92;2.20;;;;;;;;;;4789371;30;20047;-79
2023/03/29 11:49:23;;;;;;;2.90;1.73;;;;;;;;;;4789065;30;20055;-76
2023/03/29 11:52:17;;;;;;;50.88;22.10;;;;;;;;;;4788962;30;20051;-77
2023/03/29 11:55:10;;;;;;;2.88;1.40;;;;;;;;;;4789346;29;20480;-77
2023/03/29 11:58:19;;;;;;;3.35;2.00;;;;;;;;;;4788759;30;20052;-76
2023/03/29 12:01:26;;;;;;;3.72;1.50;;;;;;;;;;4788451;30;20071;-77
2023/03/29 12:04:21;;;;;;;2.03;1.20;;;;;;;;;;4786931;30;20047;-75
2023/03/29 12:07:16;;;;;;;2.03;0.93;;;;;;;;;;4775756;30;20047;-77
2023/03/29 12:10:12;;;;;;;3.25;2.10;;;;;;;;;;4789262;30;20047;-77
2023/03/29 12:13:10;;;;;;;5.32;1.92;;;;;;;;;;4788469;30;20055;-76
2023/03/29 12:16:15;;;;;;;2.35;1.42;;;;;;;;;;4788945;30;20485;-78
2023/03/29 12:19:07;;;;;;;3.83;2.20;;;;;;;;;;4788931;30;20059;-77
2023/03/29 12:21:56;;;;;;;6.85;2.83;;;;;;;;;;4788837;30;20059;-78
2023/03/29 12:24:45;;;;;;;4.93;2.67;;;;;;;;;;4779877;29;20055;-79
2023/03/29 12:28:19;;;;;;;1.90;1.50;;;;;;;;;;4788400;30;20051;-79
2023/03/29 12:31:32;;;;;;;8.45;2.10;;;;;;;;;;4788937;30;20047;-77
2023/03/29 12:34:55;;;;;;;1.92;1.35;;;;;;;;;;4788959;30;20063;-77
2023/03/29 12:38:07;;;;;;;3.67;1.75;;;;;;;;;;4788700;30;20051;-77
2023/03/29 12:41:23;;;;;;;1.92;1.33;;;;;;;;;;4788794;29;20051;-76
2023/03/29 12:44:21;;;;;;;2.85;1.77;;;;;;;;;;4788168;30;20047;-77
2023/03/29 12:47:19;;;;;;;2.53;1.40;;;;;;;;;;4788015;30;20051;-80
2023/03/29 12:50:04;;;;;;;4.28;2.08;;;;;;;;;;4788712;30;20047;-76
2023/03/29 12:52:50;;;;;;;3.85;2.30;;;;;;;;;;4788186;30;20051;-76
2023/03/29 12:55:41;;;;;;;2.72;1.30;;;;;;;;;;4788401;30;20051;-76
2023/03/29 12:58:39;;;;;;;17.13;5.95;;;;;;;;;;4788984;30;20055;-77
2023/03/29 13:01:33;;;;;;;8.82;3.47;;;;;;;;;;4774448;30;20043;-77
2023/03/29 13:04:20;;;;;;;10.50;3.65;;;;;;;;;;4788445;30;20408;-77
2023/03/29 13:07:31;;;;;;;5.72;1.67;;;;;;;;;;4788139;29;20055;-77
2023/03/29 13:10:53;;;;;;;13.10;2.33;;;;;;;;;;4797793;29;20051;-77
2023/03/29 13:13:40;;;;;;;1.77;1.25;;;;;;;;;;4770535;30;20051;-81
2023/03/29 13:16:32;;;;;;;2.70;1.40;;;;;;;;;;4791599;30;20055;-77
2023/03/29 13:19:29;;;;;;;1.27;1.08;;;;;;;;;;4791716;30;20055;-78
2023/03/29 13:22:30;;;;;;;6.65;2.42;;;;;;;;;;4778022;30;20059;-77
2023/03/29 13:25:40;;;;;;;3.17;1.48;;;;;;;;;;4790868;30;20079;-78
2023/03/29 13:28:42;;;;;;;4.68;2.63;;;;;;;;;;4791474;30;20047;-78
2023/03/29 13:31:33;;;;;;;7.57;3.53;;;;;;;;;;4791705;30;20085;-77
2023/03/29 13:34:41;;;;;;;7.88;3.67;;;;;;;;;;4792025;30;20055;-78
2023/03/29 13:37:35;;;;;;;5.15;2.97;;;;;;;;;;4791235;30;20081;-78
2023/03/29 13:40:27;;;;;;;;;;;;;;;;;;4797498;29;20047;-77
2023/03/29 13:43:21;;;;;;;6.00;2.35;;;;;;;;;;4807761;29;19921;-77
2023/03/29 13:46:40;;;;;;;5.07;2.10;;;;;;;;;;4795784;29;20476;-78
2023/03/29 13:49:32;;;;;;;5.60;2.53;;;;;;;;;;4805391;29;20054;-78
2023/03/29 13:52:17;;;;;;;9.73;4.18;;;;;;;;;;4801721;29;20059;-78
2023/03/29 13:55:07;;;;;;;7.97;4.10;;;;;;;;;;4795507;29;20419;-79
2023/03/29 13:58:19;;;;;;;10.38;2.97;;;;;;;;;;4807135;29;20051;-78
2023/03/29 14:01:18;;;;;;;5.32;1.90;;;;;;;;;;4814623;29;20043;-79
2023/03/29 14:04:04;;;;;;;3.00;1.70;;;;;;;;;;4808280;29;20496;-79
2023/03/29 14:06:53;;;;;;;8.05;4.20;;;;;;;;;;4794752;29;20055;-78
2023/03/29 14:09:43;;;;;;;4.63;2.53;;;;;;;;;;4809226;29;20058;-77
2023/03/29 14:12:33;;;;;;;5.30;2.35;;;;;;;;;;4794484;29;20409;-78
2023/03/29 14:15:25;;;;;;;6.18;1.92;;;;;;;;;;4795695;29;20051;-78
2023/03/29 14:18:17;;;;;;;4.07;2.00;;;;;;;;;;4800577;29;20051;-78
2023/03/29 14:21:03;;;;;;;4.30;2.15;;;;;;;;;;4808295;29;20051;-79
2023/03/29 14:23:55;;;;;;;8.98;3.20;;;;;;;;;;4802117;29;20054;-79
2023/03/29 14:26:45;;;;;;;6.85;2.50;;;;;;;;;;4808272;29;20055;-78
2023/03/29 14:29:33;;;;;;;4.50;2.83;;;;;;;;;;4803800;29;20050;-78
2023/03/29 14:32:28;;;;;;;13.48;4.18;;;;;;;;;;4800472;29;20497;-79
2023/03/29 14:35:13;;;;;;;25.30;10.73;;;;;;;;;;4815415;29;20054;-78
2023/03/29 14:37:59;;;;;;;3.47;1.83;;;;;;;;;;4824270;29;20286;-77
2023/03/29 14:40:44;;;;;;;5.38;2.75;;;;;;;;;;4826568;29;20050;-78
2023/03/29 14:43:30;;;;;;;11.23;4.88;;;;;;;;;;4820435;29;20043;-78
2023/03/29 14:46:19;;;;;;;9.80;3.40;;;;;;;;;;4809275;29;20055;-77
2023/03/29 14:49:05;;;;;;;4.00;2.55;;;;;;;;;;4818756;29;20050;-77
2023/03/29 14:51:52;;;;;;;3.38;1.90;;;;;;;;;;4826168;29;20054;-79
2023/03/29 14:54:40;;;;;;;4.97;2.22;;;;;;;;;;4818408;29;20059;-80
2023/03/29 14:57:31;;;;;;;7.03;3.20;;;;;;;;;;4817841;29;20046;-77
2023/03/29 15:00:37;;;;;;;12.13;5.57;;;;;;;;;;4825668;29;20043;-77
2023/03/29 15:03:25;;;;;;;11.05;5.38;;;;;;;;;;4818801;29;20054;-77
2023/03/29 15:06:12;;;;;;;8.43;4.05;;;;;;;;;;4823005;29;20050;-77
2023/03/29 15:09:00;;;;;;;10.23;4.85;;;;;;;;;;4801503;29;20047;-77
2023/03/29 15:11:53;;;;;;;12.15;6.18;;;;;;;;;;4815039;29;20403;-77
2023/03/29 15:14:39;;;;;;;7.50;3.00;;;;;;;;;;4825762;29;20054;-78
2023/03/29 15:17:35;;;;;;;8.20;3.42;;;;;;;;;;4823670;29;20484;-79
2023/03/29 15:20:24;;;;;;;6.68;1.85;;;;;;;;;;4801094;29;20055;-78
2023/03/29 15:23:13;;;;;;;7.82;3.78;;;;;;;;;;4808016;29;20055;-78
2023/03/29 15:26:13;;;;;;;11.68;5.80;;;;;;;;;;4808504;29;20050;-80
2023/03/29 15:29:06;;;;;;;3.53;1.48;;;;;;;;;;4825598;29;20050;-79
2023/03/29 15:31:56;;;;;;;7.90;2.22;;;;;;;;;;4819087;29;20055;-79
2023/03/29 15:34:41;;;;;;;5.95;3.22;;;;;;;;;;4801371;29;20047;-79
2023/03/29 15:37:27;;;;;;;5.47;2.80;;;;;;;;;;4815576;29;20054;-79
2023/03/29 15:40:17;;;;;;;8.93;3.38;;;;;;;;;;4790740;29;20051;-78
2023/03/29 15:43:02;;;;;;;5.50;2.65;;;;;;;;;;4781616;29;20059;-78
2023/03/29 15:45:47;;;;;;;5.60;1.92;;;;;;;;;;4789664;30;20055;-80
2023/03/29 15:48:33;;;;;;;161.98;55.58;;;;;;;;;;4781711;29;20059;-79
2023/03/29 15:51:17;;;;;;;20.00;7.57;;;;;;;;;;4791694;30;20051;-78
2023/03/29 15:54:03;;;;;;;25.67;8.93;;;;;;;;;;4795050;29;20063;-78
2023/03/29 15:56:53;;;;;;;14.57;5.07;;;;;;;;;;4797432;29;20062;-77
2023/03/29 15:59:38;;;;;;;36.88;22.13;;;;;;;;;;4791764;29;20066;-78
2023/03/29 16:02:24;;;;;;;13.63;8.63;;;;;;;;;;4800948;29;20051;-76
2023/03/29 16:05:11;;;;;;;13.95;6.65;;;;;;;;;;4805024;29;20047;-78
2023/03/29 16:07:57;;;;;;;24.67;11.75;;;;;;;;;;4805797;29;20465;-78
2023/03/29 16:10:43;;;;;;;57.42;23.05;;;;;;;;;;4807577;29;20055;-79
2023/03/29 16:13:28;;;;;;;36.17;22.30;;;;;;;;;;4803061;29;20051;-79
2023/03/29 16:16:14;;;;;;;32.90;20.95;;;;;;;;;;4800121;29;20054;-78
2023/03/29 16:18:59;;;;;;;15.57;9.60;;;;;;;;;;4800826;29;20043;-78
2023/03/29 16:21:45;;;;;;;24.60;16.25;;;;;;;;;;4793162;29;20054;-77
2023/03/29 16:24:31;;;;;;;17.75;11.13;;;;;;;;;;4799575;29;20409;-78
2023/03/29 16:27:16;;;;;;;23.98;16.38;;;;;;;;;;4807166;29;20054;-77
2023/03/29 16:30:02;;;;;;;18.83;11.50;;;;;;;;;;4801920;29;20043;-78
2023/03/29 16:32:48;;;;;;;25.17;12.02;;;;;;;;;;4803454;29;20050;-78
2023/03/29 16:35:36;;;;;;;17.45;10.00;;;;;;;;;;4807482;29;20059;-78
2023/03/29 16:38:23;;;;;;;27.67;15.88;;;;;;;;;;4789596;29;20043;-77
2023/03/29 16:41:16;;;;;;;27.30;13.48;;;;;;;;;;4802002;29;20055;-77
2023/03/29 16:44:02;;;;;;;32.45;14.88;;;;;;;;;;4794013;29;20051;-78
2023/03/29 16:46:47;;;;;;;44.00;22.92;;;;;;;;;;4791394;29;20047;-77
2023/03/29 16:49:33;;;;;;;97.65;42.97;;;;;;;;;;4803694;29;20050;-77
2023/03/29 16:52:18;;;;;;;38.85;18.63;;;;;;;;;;4798482;29;20042;-77
2023/03/29 16:55:05;;;;;;;24.55;13.57;;;;;;;;;;4803736;29;20737;-77
2023/03/29 16:57:51;;;;;;;60.80;30.48;;;;;;;;;;4817587;29;20055;-78
2023/03/29 17:00:36;;;;;;;37.03;20.92;;;;;;;;;;4814851;29;20050;-78
2023/03/29 17:03:22;;;;;;;19.23;11.75;;;;;;;;;;4788304;30;20043;-78
2023/03/29 17:06:09;;;;;;;107.90;70.78;;;;;;;;;;4801389;29;20039;-79
2023/03/29 17:08:53;;;;;;;78.25;44.50;;;;;;;;;;4824688;29;20051;-78
2023/03/29 17:11:40;;;;;;;37.17;21.35;;;;;;;;;;4823787;29;20050;-77
2023/03/29 17:14:25;;;;;;;66.78;35.08;;;;;;;;;;4824228;29;20046;-77
2023/03/29 17:17:10;;;;;;;67.05;41.72;;;;;;;;;;4801650;29;20060;-79
2023/03/29 17:19:56;;;;;;;48.67;28.15;;;;;;;;;;4798454;29;20047;-79
2023/03/29 17:22:42;;;;;;;49.00;26.55;;;;;;;;;;4791785;29;20070;-79
2023/03/29 17:25:27;;;;;;;54.92;26.85;;;;;;;;;;4801906;29;20058;-79
2023/03/29 17:28:13;;;;;;;60.30;29.90;;;;;;;;;;4794781;29;20730;-79
2023/03/29 17:31:02;;;;;;;115.32;58.13;;;;;;;;;;4794890;29;20055;-78
2023/03/29 17:33:50;;;;;;;87.13;43.50;;;;;;;;;;4803817;29;20412;-78
2023/03/29 17:36:36;;;;;;;60.35;33.17;;;;;;;;;;4804943;29;20054;-79
2023/03/29 17:39:23;;;;;;;30.63;16.13;;;;;;;;;;4805679;29;20047;-79
2023/03/29 17:42:09;;;;;;;13.52;7.00;;;;;;;;;;4798700;29;20288;-81
2023/03/29 17:44:54;;;;;;;12.60;6.03;;;;;;;;;;4806805;29;20055;-80
2023/03/29 17:47:40;;;;;;;12.40;5.18;;;;;;;;;;4806488;29;20416;-78
2023/03/29 17:50:25;;;;;;;13.55;3.78;;;;;;;;;;4807448;29;20102;-78
2023/03/29 17:53:12;;;;;;;6.43;3.42;;;;;;;;;;4807438;29;20046;-77
2023/03/29 17:55:57;;;;;;;9.32;4.00;;;;;;;;;;4810673;29;20058;-78
2023/03/29 17:58:49;;;;;;;8.95;4.05;;;;;;;;;;4804314;29;20059;-80
2023/03/29 18:01:34;;;;;;;11.65;5.30;;;;;;;;;;4809671;29;20062;-78
2023/03/29 18:04:20;;;;;;;12.68;5.68;;;;;;;;;;4809431;29;20050;-77
2023/03/29 18:07:12;;;;;;;14.57;6.53;;;;;;;;;;4810063;29;20042;-79
2023/03/29 18:09:58;;;;;;;14.73;7.47;;;;;;;;;;4808086;29;20042;-78
2023/03/29 18:12:45;;;;;;;12.05;5.72;;;;;;;;;;4810921;29;20046;-78
2023/03/29 18:15:31;;;;;;;12.70;6.00;;;;;;;;;;4809841;29;20058;-80
2023/03/29 18:18:16;;;;;;;61.90;31.50;;;;;;;;;;4810125;29;20512;-79
2023/03/29 18:21:03;;;;;;;70.78;37.05;;;;;;;;;;4803693;29;20415;-78
2023/03/29 18:23:50;;;;;;;55.60;28.40;;;;;;;;;;4809432;29;20050;-80
2023/03/29 18:26:35;;;;;;;47.13;23.77;;;;;;;;;;4809758;29;20059;-79
2023/03/29 18:29:20;;;;;;;58.45;25.77;;;;;;;;;;4808594;29;20042;-79
2023/03/29 18:32:06;;;;;;;62.58;31.90;;;;;;;;;;4809299;29;20085;-79
2023/03/29 18:34:52;;;;;;;26.33;11.85;;;;;;;;;;4810294;29;20495;-78
2023/03/29 18:37:37;;;;;;;29.52;13.88;;;;;;;;;;4810087;29;20038;-79
2023/03/29 18:40:23;;;;;;;43.28;24.17;;;;;;;;;;4810945;29;20050;-79
2023/03/29 18:43:09;;;;;;;45.30;23.23;;;;;;;;;;4809992;29;20047;-78
2023/03/29 18:45:55;;;;;;;46.25;24.27;;;;;;;;;;4811540;29;20047;-79